sensor_id;sensor_type;location;lat;lon;timestamp;temperature;humidity
22779;DHT22;11556;51.194;3.800;2023-04-03T00:01:31;4.10;99.90
22779;DHT22;11556;51.194;3.800;2023-04-03T00:03:56;4.10;99.90
22779;DHT22;11556;51.194;3.800;2023-04-03T00:06:23;4.10;99.90
22779;DHT22;11556;51.194;3.800;2023-04-03T00:08:49;4.10;99.90
22779;DHT22;11556;51.194;3.800;2023-04-03T00:11:15;4.10;99.90
22779;DHT22;11556;51.194;3.800;2023-04-03T00:13:42;4.00;99.90
22779;DHT22;11556;51.194;3.800;2023-04-03T00:16:09;4.00;99.90
22779;DHT22;11556;51.194;3.800;2023-04-03T00:18:36;4.00;99.90
22779;DHT22;11556;51.194;3.800;2023-04-03T00:21:01;3.80;99.90
22779;DHT22;11556;51.194;3.800;2023-04-03T00:23:27;3.80;99.90
22779;DHT22;11556;51.194;3.800;2023-04-03T00:25:53;3.70;99.90
22779;DHT22;11556;51.194;3.800;2023-04-03T00:28:19;3.70;99.90
22779;DHT22;11556;51.194;3.800;2023-04-03T00:30:45;3.70;99.90
22779;DHT22;11556;51.194;3.800;2023-04-03T00:33:12;3.70;99.90
22779;DHT22;11556;51.194;3.800;2023-04-03T00:35:39;3.60;99.90
22779;DHT22;11556;51.194;3.800;2023-04-03T00:38:04;3.60;99.90
22779;DHT22;11556;51.194;3.800;2023-04-03T00:40:37;3.50;99.90
22779;DHT22;11556;51.194;3.800;2023-04-03T00:43:28;3.50;99.90
22779;DHT22;11556;51.194;3.800;2023-04-03T00:45:55;3.40;99.90
22779;DHT22;11556;51.194;3.800;2023-04-03T00:50:50;3.50;99.90
22779;DHT22;11556;51.194;3.800;2023-04-03T00:53:21;3.40;99.90
22779;DHT22;11556;51.194;3.800;2023-04-03T00:55:48;3.50;99.90
22779;DHT22;11556;51.194;3.800;2023-04-03T00:58:15;3.50;99.90
22779;DHT22;11556;51.194;3.800;2023-04-03T01:00:46;3.60;99.90
22779;DHT22;11556;51.194;3.800;2023-04-03T01:03:13;3.60;99.90
22779;DHT22;11556;51.194;3.800;2023-04-03T01:05:39;3.70;99.90
22779;DHT22;11556;51.194;3.800;2023-04-03T01:08:06;3.60;99.90
22779;DHT22;11556;51.194;3.800;2023-04-03T01:10:31;3.60;99.90
22779;DHT22;11556;51.194;3.800;2023-04-03T01:12:57;3.60;99.90
22779;DHT22;11556;51.194;3.800;2023-04-03T01:15:26;3.50;99.90
22779;DHT22;11556;51.194;3.800;2023-04-03T01:17:57;3.50;99.90
22779;DHT22;11556;51.194;3.800;2023-04-03T01:25:38;3.40;99.90
22779;DHT22;11556;51.194;3.800;2023-04-03T01:28:07;3.40;99.90
22779;DHT22;11556;51.194;3.800;2023-04-03T01:30:35;3.40;99.90
22779;DHT22;11556;51.194;3.800;2023-04-03T01:33:05;3.40;99.90
22779;DHT22;11556;51.194;3.800;2023-04-03T01:35:30;3.40;99.90
22779;DHT22;11556;51.194;3.800;2023-04-03T01:37:56;3.40;99.90
22779;DHT22;11556;51.194;3.800;2023-04-03T01:40:21;3.40;99.90
22779;DHT22;11556;51.194;3.800;2023-04-03T01:42:47;3.40;99.90
22779;DHT22;11556;51.194;3.800;2023-04-03T01:45:13;3.40;99.90
22779;DHT22;11556;51.194;3.800;2023-04-03T01:47:38;3.40;99.90
22779;DHT22;11556;51.194;3.800;2023-04-03T01:50:04;3.40;99.90
22779;DHT22;11556;51.194;3.800;2023-04-03T01:52:30;3.30;99.90
22779;DHT22;11556;51.194;3.800;2023-04-03T01:54:55;3.40;99.90
22779;DHT22;11556;51.194;3.800;2023-04-03T01:57:21;3.40;99.90
22779;DHT22;11556;51.194;3.800;2023-04-03T01:59:46;3.40;99.90
22779;DHT22;11556;51.194;3.800;2023-04-03T02:02:12;3.30;99.90
22779;DHT22;11556;51.194;3.800;2023-04-03T02:04:40;3.30;99.90
22779;DHT22;11556;51.194;3.800;2023-04-03T02:07:06;3.30;99.90
22779;DHT22;11556;51.194;3.800;2023-04-03T02:09:31;3.30;99.90
22779;DHT22;11556;51.194;3.800;2023-04-03T02:11:57;3.30;99.90
22779;DHT22;11556;51.194;3.800;2023-04-03T02:14:23;3.40;99.90
22779;DHT22;11556;51.194;3.800;2023-04-03T02:16:49;3.30;99.90
22779;DHT22;11556;51.194;3.800;2023-04-03T02:19:15;3.40;99.90
22779;DHT22;11556;51.194;3.800;2023-04-03T02:21:41;3.40;99.90
22779;DHT22;11556;51.194;3.800;2023-04-03T02:24:07;3.40;99.90
22779;DHT22;11556;51.194;3.800;2023-04-03T02:26:33;3.40;99.90
22779;DHT22;11556;51.194;3.800;2023-04-03T02:28:58;3.50;99.90
22779;DHT22;11556;51.194;3.800;2023-04-03T02:31:24;3.40;99.90
22779;DHT22;11556;51.194;3.800;2023-04-03T02:33:50;3.50;99.90
22779;DHT22;11556;51.194;3.800;2023-04-03T02:36:16;3.50;99.90
22779;DHT22;11556;51.194;3.800;2023-04-03T02:38:42;3.50;99.90
22779;DHT22;11556;51.194;3.800;2023-04-03T02:41:09;3.50;99.90
22779;DHT22;11556;51.194;3.800;2023-04-03T02:43:36;3.50;99.90
22779;DHT22;11556;51.194;3.800;2023-04-03T02:46:01;3.50;99.90
22779;DHT22;11556;51.194;3.800;2023-04-03T02:48:27;3.50;99.90
22779;DHT22;11556;51.194;3.800;2023-04-03T02:50:53;3.50;99.90
22779;DHT22;11556;51.194;3.800;2023-04-03T02:53:19;3.50;99.90
22779;DHT22;11556;51.194;3.800;2023-04-03T02:55:44;3.50;99.90
22779;DHT22;11556;51.194;3.800;2023-04-03T02:58:11;3.50;99.90
22779;DHT22;11556;51.194;3.800;2023-04-03T03:00:36;3.40;99.90
22779;DHT22;11556;51.194;3.800;2023-04-03T03:03:02;3.40;99.90
22779;DHT22;11556;51.194;3.800;2023-04-03T03:05:28;3.50;99.90
22779;DHT22;11556;51.194;3.800;2023-04-03T03:07:54;3.50;99.90
22779;DHT22;11556;51.194;3.800;2023-04-03T03:10:19;3.50;99.90
22779;DHT22;11556;51.194;3.800;2023-04-03T03:12:45;3.40;99.90
22779;DHT22;11556;51.194;3.800;2023-04-03T03:15:11;3.40;99.90
22779;DHT22;11556;51.194;3.800;2023-04-03T03:17:37;3.50;99.90
22779;DHT22;11556;51.194;3.800;2023-04-03T03:20:04;3.40;99.90
22779;DHT22;11556;51.194;3.800;2023-04-03T03:22:30;3.40;99.90
22779;DHT22;11556;51.194;3.800;2023-04-03T03:24:56;3.30;99.90
22779;DHT22;11556;51.194;3.800;2023-04-03T03:27:21;3.30;99.90
22779;DHT22;11556;51.194;3.800;2023-04-03T03:29:47;3.20;99.90
22779;DHT22;11556;51.194;3.800;2023-04-03T03:32:12;3.20;99.90
22779;DHT22;11556;51.194;3.800;2023-04-03T03:34:38;3.20;99.90
22779;DHT22;11556;51.194;3.800;2023-04-03T03:37:04;3.10;99.90
22779;DHT22;11556;51.194;3.800;2023-04-03T03:39:30;3.10;99.90
22779;DHT22;11556;51.194;3.800;2023-04-03T03:41:55;3.10;99.90
22779;DHT22;11556;51.194;3.800;2023-04-03T03:44:22;3.10;99.90
22779;DHT22;11556;51.194;3.800;2023-04-03T03:46:48;3.00;99.90
22779;DHT22;11556;51.194;3.800;2023-04-03T03:49:13;3.00;99.90
22779;DHT22;11556;51.194;3.800;2023-04-03T03:51:39;3.00;99.90
22779;DHT22;11556;51.194;3.800;2023-04-03T03:54:06;3.00;99.90
22779;DHT22;11556;51.194;3.800;2023-04-03T03:56:32;3.00;99.90
22779;DHT22;11556;51.194;3.800;2023-04-03T03:58:57;2.90;99.90
22779;DHT22;11556;51.194;3.800;2023-04-03T04:01:23;2.90;99.90
22779;DHT22;11556;51.194;3.800;2023-04-03T04:03:49;2.90;99.90
22779;DHT22;11556;51.194;3.800;2023-04-03T04:06:15;2.90;99.90
22779;DHT22;11556;51.194;3.800;2023-04-03T04:08:41;2.90;99.90
22779;DHT22;11556;51.194;3.800;2023-04-03T04:11:07;2.80;99.90
22779;DHT22;11556;51.194;3.800;2023-04-03T04:13:33;2.80;99.90
22779;DHT22;11556;51.194;3.800;2023-04-03T04:15:58;2.80;99.90
22779;DHT22;11556;51.194;3.800;2023-04-03T04:18:24;2.80;99.90
22779;DHT22;11556;51.194;3.800;2023-04-03T04:20:50;2.80;99.90
22779;DHT22;11556;51.194;3.800;2023-04-03T04:23:17;2.80;99.90
22779;DHT22;11556;51.194;3.800;2023-04-03T04:25:47;2.80;99.90
22779;DHT22;11556;51.194;3.800;2023-04-03T04:28:12;2.80;99.90
22779;DHT22;11556;51.194;3.800;2023-04-03T04:30:38;2.80;99.90
22779;DHT22;11556;51.194;3.800;2023-04-03T04:33:04;2.80;99.90
22779;DHT22;11556;51.194;3.800;2023-04-03T04:35:30;2.70;99.90
22779;DHT22;11556;51.194;3.800;2023-04-03T04:37:55;2.60;99.90
22779;DHT22;11556;51.194;3.800;2023-04-03T04:40:21;2.60;99.90
22779;DHT22;11556;51.194;3.800;2023-04-03T04:42:47;2.60;99.90
22779;DHT22;11556;51.194;3.800;2023-04-03T04:45:12;2.60;99.90
22779;DHT22;11556;51.194;3.800;2023-04-03T04:47:38;2.60;99.90
22779;DHT22;11556;51.194;3.800;2023-04-03T04:50:05;2.60;99.90
22779;DHT22;11556;51.194;3.800;2023-04-03T04:52:30;2.50;99.90
22779;DHT22;11556;51.194;3.800;2023-04-03T04:54:56;2.50;99.90
22779;DHT22;11556;51.194;3.800;2023-04-03T04:57:22;2.50;99.90
22779;DHT22;11556;51.194;3.800;2023-04-03T04:59:47;2.50;99.90
22779;DHT22;11556;51.194;3.800;2023-04-03T05:02:13;2.50;99.90
22779;DHT22;11556;51.194;3.800;2023-04-03T05:04:38;2.50;99.90
22779;DHT22;11556;51.194;3.800;2023-04-03T05:07:04;2.50;99.90
22779;DHT22;11556;51.194;3.800;2023-04-03T05:09:30;2.50;99.90
22779;DHT22;11556;51.194;3.800;2023-04-03T05:11:56;2.50;99.90
22779;DHT22;11556;51.194;3.800;2023-04-03T05:14:22;2.50;99.90
22779;DHT22;11556;51.194;3.800;2023-04-03T05:16:47;2.50;99.90
22779;DHT22;11556;51.194;3.800;2023-04-03T05:19:13;2.50;99.90
22779;DHT22;11556;51.194;3.800;2023-04-03T05:21:39;2.50;99.90
22779;DHT22;11556;51.194;3.800;2023-04-03T05:24:05;2.50;99.90
22779;DHT22;11556;51.194;3.800;2023-04-03T05:26:34;2.50;99.90
22779;DHT22;11556;51.194;3.800;2023-04-03T05:29:00;2.50;99.90
22779;DHT22;11556;51.194;3.800;2023-04-03T05:31:26;2.40;99.90
22779;DHT22;11556;51.194;3.800;2023-04-03T05:33:54;2.50;99.90
22779;DHT22;11556;51.194;3.800;2023-04-03T05:36:20;2.60;99.90
22779;DHT22;11556;51.194;3.800;2023-04-03T05:38:45;2.90;99.90
22779;DHT22;11556;51.194;3.800;2023-04-03T05:41:11;3.20;99.90
22779;DHT22;11556;51.194;3.800;2023-04-03T05:43:37;3.40;99.90
22779;DHT22;11556;51.194;3.800;2023-04-03T05:46:08;3.70;99.90
22779;DHT22;11556;51.194;3.800;2023-04-03T05:48:34;3.90;99.90
22779;DHT22;11556;51.194;3.800;2023-04-03T05:50:59;4.30;99.90
22779;DHT22;11556;51.194;3.800;2023-04-03T05:53:28;4.50;99.90
22779;DHT22;11556;51.194;3.800;2023-04-03T05:55:55;5.00;99.90
22779;DHT22;11556;51.194;3.800;2023-04-03T05:58:20;5.30;99.90
22779;DHT22;11556;51.194;3.800;2023-04-03T06:00:46;5.10;99.90
22779;DHT22;11556;51.194;3.800;2023-04-03T06:03:13;5.00;99.90
22779;DHT22;11556;51.194;3.800;2023-04-03T06:05:39;5.00;99.90
22779;DHT22;11556;51.194;3.800;2023-04-03T06:08:05;5.20;99.90
22779;DHT22;11556;51.194;3.800;2023-04-03T06:10:31;5.20;99.90
22779;DHT22;11556;51.194;3.800;2023-04-03T06:12:56;5.30;99.90
22779;DHT22;11556;51.194;3.800;2023-04-03T06:15:22;5.70;99.90
22779;DHT22;11556;51.194;3.800;2023-04-03T06:17:48;5.90;99.90
22779;DHT22;11556;51.194;3.800;2023-04-03T06:20:14;5.90;99.90
22779;DHT22;11556;51.194;3.800;2023-04-03T06:22:39;5.80;99.90
22779;DHT22;11556;51.194;3.800;2023-04-03T06:25:07;6.00;99.90
22779;DHT22;11556;51.194;3.800;2023-04-03T06:27:33;6.30;99.90
22779;DHT22;11556;51.194;3.800;2023-04-03T06:29:58;6.80;99.90
22779;DHT22;11556;51.194;3.800;2023-04-03T06:32:25;7.60;99.90
22779;DHT22;11556;51.194;3.800;2023-04-03T06:34:51;8.20;99.90
22779;DHT22;11556;51.194;3.800;2023-04-03T06:37:21;8.10;99.90
22779;DHT22;11556;51.194;3.800;2023-04-03T06:39:47;7.80;99.90
22779;DHT22;11556;51.194;3.800;2023-04-03T06:42:13;7.50;99.90
22779;DHT22;11556;51.194;3.800;2023-04-03T06:44:39;7.40;99.90
22779;DHT22;11556;51.194;3.800;2023-04-03T06:47:05;7.20;99.90
22779;DHT22;11556;51.194;3.800;2023-04-03T06:49:31;7.00;99.90
22779;DHT22;11556;51.194;3.800;2023-04-03T06:51:57;6.80;99.90
22779;DHT22;11556;51.194;3.800;2023-04-03T06:54:23;6.80;99.90
22779;DHT22;11556;51.194;3.800;2023-04-03T06:56:48;6.90;99.90
22779;DHT22;11556;51.194;3.800;2023-04-03T06:59:14;7.00;99.90
22779;DHT22;11556;51.194;3.800;2023-04-03T07:01:40;7.00;99.90
22779;DHT22;11556;51.194;3.800;2023-04-03T07:04:07;7.20;99.90
22779;DHT22;11556;51.194;3.800;2023-04-03T07:06:33;7.30;99.90
22779;DHT22;11556;51.194;3.800;2023-04-03T07:08:59;7.60;99.90
22779;DHT22;11556;51.194;3.800;2023-04-03T07:11:25;8.30;99.90
22779;DHT22;11556;51.194;3.800;2023-04-03T07:13:51;8.80;99.90
22779;DHT22;11556;51.194;3.800;2023-04-03T07:16:18;9.50;99.90
22779;DHT22;11556;51.194;3.800;2023-04-03T07:18:43;10.70;99.90
22779;DHT22;11556;51.194;3.800;2023-04-03T07:21:10;11.60;99.90
22779;DHT22;11556;51.194;3.800;2023-04-03T07:23:35;12.50;99.90
22779;DHT22;11556;51.194;3.800;2023-04-03T07:26:01;12.80;99.90
22779;DHT22;11556;51.194;3.800;2023-04-03T07:28:27;12.40;99.90
22779;DHT22;11556;51.194;3.800;2023-04-03T07:31:04;11.70;99.90
22779;DHT22;11556;51.194;3.800;2023-04-03T07:33:31;12.00;99.90
22779;DHT22;11556;51.194;3.800;2023-04-03T07:35:57;12.40;99.90
22779;DHT22;11556;51.194;3.800;2023-04-03T07:38:23;12.20;99.90
22779;DHT22;11556;51.194;3.800;2023-04-03T07:40:50;12.50;99.90
22779;DHT22;11556;51.194;3.800;2023-04-03T07:43:17;12.20;99.90
22779;DHT22;11556;51.194;3.800;2023-04-03T07:45:43;11.60;99.90
22779;DHT22;11556;51.194;3.800;2023-04-03T07:48:12;11.40;99.90
22779;DHT22;11556;51.194;3.800;2023-04-03T07:50:42;11.10;99.90
22779;DHT22;11556;51.194;3.800;2023-04-03T07:53:07;10.20;99.90
22779;DHT22;11556;51.194;3.800;2023-04-03T07:55:33;10.40;99.90
22779;DHT22;11556;51.194;3.800;2023-04-03T07:57:59;10.30;99.90
22779;DHT22;11556;51.194;3.800;2023-04-03T08:00:25;10.60;99.90
22779;DHT22;11556;51.194;3.800;2023-04-03T08:02:50;11.00;99.90
22779;DHT22;11556;51.194;3.800;2023-04-03T08:05:20;11.80;99.90
22779;DHT22;11556;51.194;3.800;2023-04-03T08:07:47;11.40;99.90
22779;DHT22;11556;51.194;3.800;2023-04-03T08:10:13;11.00;99.90
22779;DHT22;11556;51.194;3.800;2023-04-03T08:12:38;10.70;99.90
22779;DHT22;11556;51.194;3.800;2023-04-03T08:15:05;11.20;99.90
22779;DHT22;11556;51.194;3.800;2023-04-03T08:17:32;11.80;99.90
22779;DHT22;11556;51.194;3.800;2023-04-03T08:19:58;12.20;99.90
22779;DHT22;11556;51.194;3.800;2023-04-03T08:22:23;12.60;99.90
22779;DHT22;11556;51.194;3.800;2023-04-03T08:24:49;12.10;99.90
22779;DHT22;11556;51.194;3.800;2023-04-03T08:27:15;11.80;99.90
22779;DHT22;11556;51.194;3.800;2023-04-03T08:29:41;11.40;99.90
22779;DHT22;11556;51.194;3.800;2023-04-03T08:32:06;11.40;99.90
22779;DHT22;11556;51.194;3.800;2023-04-03T08:34:32;11.80;99.90
22779;DHT22;11556;51.194;3.800;2023-04-03T08:37:02;11.30;99.90
22779;DHT22;11556;51.194;3.800;2023-04-03T08:39:27;11.10;99.90
22779;DHT22;11556;51.194;3.800;2023-04-03T08:41:56;10.90;99.90
22779;DHT22;11556;51.194;3.800;2023-04-03T08:44:44;11.20;99.90
22779;DHT22;11556;51.194;3.800;2023-04-03T08:49:51;12.20;99.90
22779;DHT22;11556;51.194;3.800;2023-04-03T08:52:42;12.90;99.90
22779;DHT22;11556;51.194;3.800;2023-04-03T08:55:24;13.30;99.90
22779;DHT22;11556;51.194;3.800;2023-04-03T08:57:58;12.60;99.90
22779;DHT22;11556;51.194;3.800;2023-04-03T09:00:28;12.70;99.90
22779;DHT22;11556;51.194;3.800;2023-04-03T09:02:56;12.50;99.90
22779;DHT22;11556;51.194;3.800;2023-04-03T09:08:28;12.40;99.90
22779;DHT22;11556;51.194;3.800;2023-04-03T09:11:16;11.80;99.90
22779;DHT22;11556;51.194;3.800;2023-04-03T09:14:01;11.90;99.90
22779;DHT22;11556;51.194;3.800;2023-04-03T09:19:41;11.90;99.90
22779;DHT22;11556;51.194;3.800;2023-04-03T09:22:22;12.00;99.90
22779;DHT22;11556;51.194;3.800;2023-04-03T09:28:02;11.80;99.90
22779;DHT22;11556;51.194;3.800;2023-04-03T09:30:28;11.10;99.90
22779;DHT22;11556;51.194;3.800;2023-04-03T09:32:56;10.60;99.90
22779;DHT22;11556;51.194;3.800;2023-04-03T09:35:30;11.00;99.90
22779;DHT22;11556;51.194;3.800;2023-04-03T09:38:22;10.80;99.90
22779;DHT22;11556;51.194;3.800;2023-04-03T09:40:49;10.70;99.90
22779;DHT22;11556;51.194;3.800;2023-04-03T09:43:31;10.90;99.90
22779;DHT22;11556;51.194;3.800;2023-04-03T09:46:24;11.10;99.90
22779;DHT22;11556;51.194;3.800;2023-04-03T09:48:55;11.20;99.90
22779;DHT22;11556;51.194;3.800;2023-04-03T09:51:25;11.30;99.90
22779;DHT22;11556;51.194;3.800;2023-04-03T09:53:52;11.40;99.90
22779;DHT22;11556;51.194;3.800;2023-04-03T09:59:14;11.70;99.90
22779;DHT22;11556;51.194;3.800;2023-04-03T10:01:43;12.10;99.90
22779;DHT22;11556;51.194;3.800;2023-04-03T10:04:21;12.20;99.90
22779;DHT22;11556;51.194;3.800;2023-04-03T10:06:50;11.40;99.90
22779;DHT22;11556;51.194;3.800;2023-04-03T10:09:31;11.70;99.90
22779;DHT22;11556;51.194;3.800;2023-04-03T10:14:38;12.60;99.40
22779;DHT22;11556;51.194;3.800;2023-04-03T10:17:14;12.10;99.90
22779;DHT22;11556;51.194;3.800;2023-04-03T10:19:50;11.80;99.90
22779;DHT22;11556;51.194;3.800;2023-04-03T10:27:55;12.30;99.90
22779;DHT22;11556;51.194;3.800;2023-04-03T10:30:44;12.60;99.90
22779;DHT22;11556;51.194;3.800;2023-04-03T10:36:25;13.40;98.30
22779;DHT22;11556;51.194;3.800;2023-04-03T10:41:38;13.70;96.20
22779;DHT22;11556;51.194;3.800;2023-04-03T10:46:55;12.50;98.50
22779;DHT22;11556;51.194;3.800;2023-04-03T10:49:56;13.00;97.40
22779;DHT22;11556;51.194;3.800;2023-04-03T10:52:48;13.30;97.70
22779;DHT22;11556;51.194;3.800;2023-04-03T10:55:38;12.80;96.40
22779;DHT22;11556;51.194;3.800;2023-04-03T10:58:05;12.90;98.00
22779;DHT22;11556;51.194;3.800;2023-04-03T11:00:40;12.80;96.70
22779;DHT22;11556;51.194;3.800;2023-04-03T11:03:29;12.90;96.50
22779;DHT22;11556;51.194;3.800;2023-04-03T11:05:57;13.10;96.10
22779;DHT22;11556;51.194;3.800;2023-04-03T11:11:20;13.00;96.50
22779;DHT22;11556;51.194;3.800;2023-04-03T11:13:58;13.10;96.50
22779;DHT22;11556;51.194;3.800;2023-04-03T11:16:31;13.10;94.70
22779;DHT22;11556;51.194;3.800;2023-04-03T11:19:18;12.50;95.90
22779;DHT22;11556;51.194;3.800;2023-04-03T11:21:57;12.40;94.30
22779;DHT22;11556;51.194;3.800;2023-04-03T11:24:29;12.90;93.60
22779;DHT22;11556;51.194;3.800;2023-04-03T11:26:58;13.70;92.70
22779;DHT22;11556;51.194;3.800;2023-04-03T11:29:29;12.70;90.30
22779;DHT22;11556;51.194;3.800;2023-04-03T11:32:06;12.40;89.80
22779;DHT22;11556;51.194;3.800;2023-04-03T11:34:40;12.50;90.00
22779;DHT22;11556;51.194;3.800;2023-04-03T11:37:56;12.50;90.00
22779;DHT22;11556;51.194;3.800;2023-04-03T11:40:26;12.30;91.30
22779;DHT22;11556;51.194;3.800;2023-04-03T11:43:06;13.30;91.00
22779;DHT22;11556;51.194;3.800;2023-04-03T11:45:38;12.90;85.20
22779;DHT22;11556;51.194;3.800;2023-04-03T11:50:44;12.80;85.60
22779;DHT22;11556;51.194;3.800;2023-04-03T11:58:22;13.00;85.80
22779;DHT22;11556;51.194;3.800;2023-04-03T12:00:51;13.40;82.10
22779;DHT22;11556;51.194;3.800;2023-04-03T12:05:52;12.90;81.20
22779;DHT22;11556;51.194;3.800;2023-04-03T12:08:30;13.40;82.90
22779;DHT22;11556;51.194;3.800;2023-04-03T12:14:03;13.60;79.40
22779;DHT22;11556;51.194;3.800;2023-04-03T12:27:07;12.50;76.10
22779;DHT22;11556;51.194;3.800;2023-04-03T12:29:41;12.60;76.40
22779;DHT22;11556;51.194;3.800;2023-04-03T12:45:50;12.80;72.30
22779;DHT22;11556;51.194;3.800;2023-04-03T12:48:20;12.80;73.70
22779;DHT22;11556;51.194;3.800;2023-04-03T12:50:48;13.20;73.20
22779;DHT22;11556;51.194;3.800;2023-04-03T12:53:16;13.20;71.80
22779;DHT22;11556;51.194;3.800;2023-04-03T12:55:43;12.90;75.00
22779;DHT22;11556;51.194;3.800;2023-04-03T12:58:24;13.50;74.80
22779;DHT22;11556;51.194;3.800;2023-04-03T13:01:11;13.00;68.10
22779;DHT22;11556;51.194;3.800;2023-04-03T13:03:40;13.00;70.40
22779;DHT22;11556;51.194;3.800;2023-04-03T13:06:17;12.90;71.90
22779;DHT22;11556;51.194;3.800;2023-04-03T13:08:51;13.20;72.10
22779;DHT22;11556;51.194;3.800;2023-04-03T13:11:18;12.70;70.20
22779;DHT22;11556;51.194;3.800;2023-04-03T13:14:19;12.80;70.20
22779;DHT22;11556;51.194;3.800;2023-04-03T13:17:10;12.70;66.80
22779;DHT22;11556;51.194;3.800;2023-04-03T13:19:37;12.50;67.00
22779;DHT22;11556;51.194;3.800;2023-04-03T13:22:06;12.60;69.70
22779;DHT22;11556;51.194;3.800;2023-04-03T13:24:36;12.50;69.20
22779;DHT22;11556;51.194;3.800;2023-04-03T13:27:04;12.50;68.30
22779;DHT22;11556;51.194;3.800;2023-04-03T13:29:39;12.40;69.40
22779;DHT22;11556;51.194;3.800;2023-04-03T13:32:06;12.00;68.10
22779;DHT22;11556;51.194;3.800;2023-04-03T13:34:41;12.20;69.70
22779;DHT22;11556;51.194;3.800;2023-04-03T13:37:11;12.60;68.80
22779;DHT22;11556;51.194;3.800;2023-04-03T13:39:45;12.60;67.10
22779;DHT22;11556;51.194;3.800;2023-04-03T13:42:16;13.10;66.50
22779;DHT22;11556;51.194;3.800;2023-04-03T13:44:45;13.10;64.20
22779;DHT22;11556;51.194;3.800;2023-04-03T13:47:20;12.70;66.90
22779;DHT22;11556;51.194;3.800;2023-04-03T13:52:46;13.40;66.00
22779;DHT22;11556;51.194;3.800;2023-04-03T13:55:24;12.70;62.80
22779;DHT22;11556;51.194;3.800;2023-04-03T13:58:02;12.80;61.90
22779;DHT22;11556;51.194;3.800;2023-04-03T14:03:33;12.40;65.70
22779;DHT22;11556;51.194;3.800;2023-04-03T14:06:00;12.70;67.50
22779;DHT22;11556;51.194;3.800;2023-04-03T14:08:26;12.80;65.60
22779;DHT22;11556;51.194;3.800;2023-04-03T14:10:53;12.50;62.30
22779;DHT22;11556;51.194;3.800;2023-04-03T14:13:19;12.50;61.30
22779;DHT22;11556;51.194;3.800;2023-04-03T14:15:47;12.70;63.90
22779;DHT22;11556;51.194;3.800;2023-04-03T14:18:16;12.70;62.20
22779;DHT22;11556;51.194;3.800;2023-04-03T14:20:43;12.70;63.40
22779;DHT22;11556;51.194;3.800;2023-04-03T14:23:09;12.70;63.60
22779;DHT22;11556;51.194;3.800;2023-04-03T14:25:35;12.50;63.80
22779;DHT22;11556;51.194;3.800;2023-04-03T14:28:01;12.70;63.60
22779;DHT22;11556;51.194;3.800;2023-04-03T14:30:37;12.80;63.90
22779;DHT22;11556;51.194;3.800;2023-04-03T14:33:03;13.20;65.00
22779;DHT22;11556;51.194;3.800;2023-04-03T14:35:29;13.20;63.00
22779;DHT22;11556;51.194;3.800;2023-04-03T14:37:55;12.90;62.70
22779;DHT22;11556;51.194;3.800;2023-04-03T14:40:24;13.10;64.20
22779;DHT22;11556;51.194;3.800;2023-04-03T14:42:50;12.70;61.10
22779;DHT22;11556;51.194;3.800;2023-04-03T14:45:17;12.50;63.30
22779;DHT22;11556;51.194;3.800;2023-04-03T14:47:47;12.70;63.10
22779;DHT22;11556;51.194;3.800;2023-04-03T14:50:16;12.70;62.90
22779;DHT22;11556;51.194;3.800;2023-04-03T14:52:43;13.00;65.20
22779;DHT22;11556;51.194;3.800;2023-04-03T14:55:12;12.80;62.80
22779;DHT22;11556;51.194;3.800;2023-04-03T14:57:38;12.30;61.90
22779;DHT22;11556;51.194;3.800;2023-04-03T15:00:06;12.00;61.50
22779;DHT22;11556;51.194;3.800;2023-04-03T15:02:37;12.00;63.10
22779;DHT22;11556;51.194;3.800;2023-04-03T15:05:05;12.20;64.60
22779;DHT22;11556;51.194;3.800;2023-04-03T15:07:37;12.40;62.30
22779;DHT22;11556;51.194;3.800;2023-04-03T15:10:29;12.20;62.90
22779;DHT22;11556;51.194;3.800;2023-04-03T15:12:53;12.20;63.60
22779;DHT22;11556;51.194;3.800;2023-04-03T15:15:20;12.40;63.00
22779;DHT22;11556;51.194;3.800;2023-04-03T15:17:48;12.30;61.60
22779;DHT22;11556;51.194;3.800;2023-04-03T15:20:18;12.30;63.90
22779;DHT22;11556;51.194;3.800;2023-04-03T15:22:45;12.50;64.40
22779;DHT22;11556;51.194;3.800;2023-04-03T15:25:11;12.60;61.00
22779;DHT22;11556;51.194;3.800;2023-04-03T15:27:38;12.40;61.40
22779;DHT22;11556;51.194;3.800;2023-04-03T15:30:05;12.30;61.40
22779;DHT22;11556;51.194;3.800;2023-04-03T15:32:31;12.20;62.40
22779;DHT22;11556;51.194;3.800;2023-04-03T15:34:57;12.10;63.10
22779;DHT22;11556;51.194;3.800;2023-04-03T15:37:23;12.30;63.00
22779;DHT22;11556;51.194;3.800;2023-04-03T15:39:48;12.40;61.90
22779;DHT22;11556;51.194;3.800;2023-04-03T15:42:14;12.10;59.20
22779;DHT22;11556;51.194;3.800;2023-04-03T15:44:40;11.80;59.70
22779;DHT22;11556;51.194;3.800;2023-04-03T15:47:06;11.90;63.70
22779;DHT22;11556;51.194;3.800;2023-04-03T15:49:35;11.90;64.10
22779;DHT22;11556;51.194;3.800;2023-04-03T15:52:01;11.90;62.80
22779;DHT22;11556;51.194;3.800;2023-04-03T15:54:27;12.00;61.70
22779;DHT22;11556;51.194;3.800;2023-04-03T15:56:54;11.80;59.80
22779;DHT22;11556;51.194;3.800;2023-04-03T15:59:21;11.60;62.00
22779;DHT22;11556;51.194;3.800;2023-04-03T16:01:48;11.70;63.40
22779;DHT22;11556;51.194;3.800;2023-04-03T16:04:14;11.60;62.40
22779;DHT22;11556;51.194;3.800;2023-04-03T16:06:40;11.60;61.00
22779;DHT22;11556;51.194;3.800;2023-04-03T16:09:06;11.70;60.50
22779;DHT22;11556;51.194;3.800;2023-04-03T16:11:32;11.70;59.10
22779;DHT22;11556;51.194;3.800;2023-04-03T16:13:57;11.60;60.50
22779;DHT22;11556;51.194;3.800;2023-04-03T16:16:24;11.60;61.70
22779;DHT22;11556;51.194;3.800;2023-04-03T16:18:51;11.40;61.40
22779;DHT22;11556;51.194;3.800;2023-04-03T16:21:17;11.40;64.20
22779;DHT22;11556;51.194;3.800;2023-04-03T16:23:43;11.40;67.20
22779;DHT22;11556;51.194;3.800;2023-04-03T16:26:09;11.50;66.60
22779;DHT22;11556;51.194;3.800;2023-04-03T16:28:35;11.40;67.00
22779;DHT22;11556;51.194;3.800;2023-04-03T16:31:02;11.40;65.20
22779;DHT22;11556;51.194;3.800;2023-04-03T16:33:27;11.30;63.60
22779;DHT22;11556;51.194;3.800;2023-04-03T16:35:54;11.10;61.30
22779;DHT22;11556;51.194;3.800;2023-04-03T16:38:20;11.00;62.00
22779;DHT22;11556;51.194;3.800;2023-04-03T16:40:47;11.00;65.10
22779;DHT22;11556;51.194;3.800;2023-04-03T16:43:14;11.10;67.40
22779;DHT22;11556;51.194;3.800;2023-04-03T16:45:40;11.00;67.20
22779;DHT22;11556;51.194;3.800;2023-04-03T16:48:05;11.00;69.60
22779;DHT22;11556;51.194;3.800;2023-04-03T16:50:31;10.90;70.40
22779;DHT22;11556;51.194;3.800;2023-04-03T16:52:57;11.00;70.90
22779;DHT22;11556;51.194;3.800;2023-04-03T16:55:23;10.90;69.80
22779;DHT22;11556;51.194;3.800;2023-04-03T16:57:48;10.80;68.40
22779;DHT22;11556;51.194;3.800;2023-04-03T17:00:15;10.70;72.00
22779;DHT22;11556;51.194;3.800;2023-04-03T17:02:41;10.70;71.70
22779;DHT22;11556;51.194;3.800;2023-04-03T17:05:07;10.70;73.30
22779;DHT22;11556;51.194;3.800;2023-04-03T17:07:33;10.70;73.80
22779;DHT22;11556;51.194;3.800;2023-04-03T17:09:58;10.60;74.10
22779;DHT22;11556;51.194;3.800;2023-04-03T17:12:25;10.60;72.70